createdAt,value
2018-07-31T00:00:36.668Z,50.70
2018-07-31T00:03:05.345Z,50.18
2018-07-31T00:05:34.763Z,51.20
2018-07-31T00:08:03.423Z,51.44
2018-07-31T00:10:32.619Z,51.08
2018-07-31T00:13:01.208Z,51.80
2018-07-31T00:15:30.092Z,51.64
2018-07-31T00:17:58.934Z,51.21
2018-07-31T00:20:28.119Z,52.04
2018-07-31T00:22:56.760Z,51.05
2018-07-31T00:25:25.602Z,51.20
2018-07-31T00:27:54.715Z,52.35
2018-07-31T00:30:23.342Z,51.72
2018-07-31T00:32:51.936Z,53.33
2018-07-31T00:35:20.505Z,51.93
2018-07-31T00:37:49.349Z,52.79
2018-07-31T00:40:18.207Z,51.84
2018-07-31T00:42:46.855Z,51.92
2018-07-31T00:45:15.553Z,52.63
2018-07-31T00:47:44.483Z,53.42
2018-07-31T00:50:13.427Z,52.66
2018-07-31T00:52:42.015Z,53.52
2018-07-31T00:55:10.739Z,54.03
2018-07-31T00:57:39.286Z,53.27
2018-07-31T01:00:07.999Z,52.81
2018-07-31T01:02:36.647Z,53.77
2018-07-31T01:05:05.839Z,53.94
2018-07-31T01:07:34.537Z,53.52
2018-07-31T01:10:03.401Z,53.34
2018-07-31T01:12:32.016Z,54.05
2018-07-31T01:15:00.739Z,53.29
2018-07-31T01:17:30.417Z,54.58
2018-07-31T01:19:59.359Z,53.67
2018-07-31T01:22:27.983Z,54.27
2018-07-31T01:24:57.426Z,54.17
2018-07-31T01:27:26.199Z,53.98
2018-07-31T01:32:22.780Z,53.95
2018-07-31T01:34:51.476Z,54.03
2018-07-31T01:37:20.115Z,55.18
2018-07-31T01:39:48.919Z,54.83
2018-07-31T01:42:17.797Z,55.49
2018-07-31T01:44:46.523Z,55.98
2018-07-31T01:47:15.748Z,56.39
2018-07-31T01:49:44.680Z,55.68
2018-07-31T01:52:13.771Z,55.83
2018-07-31T01:54:42.822Z,56.26
2018-07-31T01:57:11.427Z,55.49
2018-07-31T01:59:40.048Z,55.96
2018-07-31T02:02:09.332Z,55.79
2018-07-31T02:04:37.969Z,55.47
2018-07-31T02:07:06.584Z,55.04
2018-07-31T02:09:35.640Z,54.75
2018-07-31T02:12:04.383Z,55.29
2018-07-31T02:14:33.427Z,55.30
2018-07-31T02:17:02.083Z,56.22
2018-07-31T02:19:30.938Z,56.53
2018-07-31T02:21:59.651Z,55.36
2018-07-31T02:24:28.543Z,55.68
2018-07-31T02:26:57.095Z,56.66
2018-07-31T02:30:29.122Z,57.08
2018-07-31T02:32:58.780Z,57.02
2018-07-31T02:35:27.392Z,57.09
2018-07-31T02:37:55.943Z,57.76
2018-07-31T02:40:24.830Z,57.23
2018-07-31T02:42:53.619Z,57.55
2018-07-31T02:45:22.243Z,57.34
2018-07-31T02:47:50.891Z,57.39
2018-07-31T02:50:19.468Z,57.65
2018-07-31T02:52:48.075Z,57.22
2018-07-31T02:55:16.635Z,57.68
2018-07-31T02:57:45.219Z,57.10
2018-07-31T03:00:13.949Z,57.67
2018-07-31T03:02:42.497Z,58.00
2018-07-31T03:05:12.644Z,57.46
2018-07-31T03:07:41.841Z,57.79
2018-07-31T03:10:11.656Z,58.67
2018-07-31T03:12:40.316Z,58.15
2018-07-31T03:15:10.723Z,58.42
2018-07-31T03:17:39.315Z,58.10
2018-07-31T03:20:10.217Z,58.25
2018-07-31T03:22:38.864Z,58.01
2018-07-31T03:25:07.524Z,57.96
2018-07-31T03:27:36.131Z,58.86
2018-07-31T03:30:05.307Z,58.54
2018-07-31T03:32:33.991Z,58.37
2018-07-31T03:35:02.829Z,58.47
2018-07-31T03:37:31.595Z,58.74
2018-07-31T03:40:00.134Z,58.47
2018-07-31T03:42:28.764Z,59.65
2018-07-31T03:44:57.543Z,58.64
2018-07-31T03:47:26.116Z,59.38
2018-07-31T03:49:55.169Z,58.74
2018-07-31T03:52:23.804Z,59.38
2018-07-31T03:54:52.903Z,59.33
2018-07-31T03:57:22.022Z,59.89
2018-07-31T03:59:50.559Z,59.88
2018-07-31T04:02:19.491Z,59.84
2018-07-31T04:04:48.292Z,59.67
2018-07-31T04:07:16.828Z,59.97
2018-07-31T04:09:45.455Z,61.06
2018-07-31T04:12:14.532Z,60.69
2018-07-31T04:14:43.191Z,61.15
2018-07-31T04:17:12.019Z,60.79
2018-07-31T04:19:41.324Z,61.46
2018-07-31T04:22:10.055Z,61.27
2018-07-31T04:24:39.287Z,60.93
2018-07-31T04:27:07.940Z,59.83
2018-07-31T04:29:36.519Z,60.25
2018-07-31T04:32:05.178Z,59.99
2018-07-31T04:34:34.267Z,60.05
2018-07-31T04:37:03.111Z,59.77
2018-07-31T04:39:31.801Z,60.11
2018-07-31T04:42:00.617Z,60.41
2018-07-31T04:44:29.263Z,59.92
2018-07-31T04:46:57.852Z,59.51
2018-07-31T04:49:26.884Z,59.09
2018-07-31T04:51:55.411Z,58.03
2018-07-31T04:54:24.336Z,58.18
2018-07-31T04:56:53.337Z,57.77
2018-07-31T04:59:21.887Z,57.55
2018-07-31T05:01:50.605Z,57.80
2018-07-31T05:04:19.368Z,57.50
2018-07-31T05:06:48.399Z,57.51
2018-07-31T05:09:17.039Z,57.04
2018-07-31T05:11:45.665Z,57.54
2018-07-31T05:14:14.523Z,57.81
2018-07-31T05:16:43.205Z,57.93
2018-07-31T05:19:12.029Z,57.06
2018-07-31T05:21:41.284Z,56.93
2018-07-31T05:24:09.908Z,57.60
2018-07-31T05:26:38.603Z,56.96
2018-07-31T05:29:07.247Z,56.51
2018-07-31T05:31:35.767Z,56.69
2018-07-31T05:34:04.760Z,56.49
2018-07-31T05:36:33.700Z,56.12
2018-07-31T05:39:02.532Z,55.50
2018-07-31T05:41:31.534Z,55.46
2018-07-31T05:44:00.692Z,55.49
2018-07-31T05:46:29.285Z,54.69
2018-07-31T05:48:58.052Z,54.11
2018-07-31T05:51:26.661Z,53.67
2018-07-31T05:53:55.231Z,53.99
2018-07-31T05:56:24.056Z,53.63
2018-07-31T05:58:53.216Z,53.63
2018-07-31T06:01:22.085Z,53.57
2018-07-31T06:03:51.166Z,52.97
2018-07-31T06:06:19.982Z,52.23
2018-07-31T06:08:48.571Z,52.75
2018-07-31T06:11:17.755Z,51.67
2018-07-31T06:13:46.628Z,51.13
2018-07-31T06:16:15.172Z,50.90
2018-07-31T06:18:44.080Z,50.73
2018-07-31T06:21:12.721Z,50.68
2018-07-31T06:23:41.611Z,49.10
2018-07-31T06:26:10.693Z,48.13
2018-07-31T06:28:40.136Z,47.49
2018-07-31T06:31:09.216Z,47.12
2018-07-31T06:33:37.912Z,46.30
2018-07-31T06:36:06.599Z,44.56
2018-07-31T06:38:35.369Z,45.02
2018-07-31T06:41:04.203Z,43.27
2018-07-31T06:43:32.869Z,42.38
2018-07-31T06:46:01.479Z,41.19
2018-07-31T06:48:30.250Z,39.96
2018-07-31T06:50:58.899Z,39.69
2018-07-31T06:53:27.592Z,38.93
2018-07-31T06:55:56.627Z,38.10
2018-07-31T06:58:25.391Z,36.60
2018-07-31T07:00:53.981Z,36.74
2018-07-31T07:03:22.716Z,37.43
2018-07-31T07:05:51.249Z,36.07
2018-07-31T07:08:20.000Z,35.55
2018-07-31T07:10:48.836Z,33.71
2018-07-31T07:13:17.960Z,33.55
2018-07-31T07:15:46.570Z,32.75
2018-07-31T07:18:15.610Z,31.70
2018-07-31T07:20:44.343Z,31.08
2018-07-31T07:23:13.280Z,30.97
2018-07-31T07:25:42.487Z,29.36
2018-07-31T07:28:11.292Z,28.53
2018-07-31T07:30:40.014Z,27.87
2018-07-31T07:33:08.968Z,27.54
2018-07-31T07:35:37.592Z,27.03
2018-07-31T07:38:06.448Z,26.67
2018-07-31T07:40:35.320Z,27.19
2018-07-31T07:43:04.214Z,26.41
2018-07-31T07:45:32.952Z,26.97
2018-07-31T07:48:01.783Z,26.39
2018-07-31T07:50:30.484Z,25.84
2018-07-31T07:52:59.128Z,24.97
2018-07-31T07:55:28.152Z,24.73
2018-07-31T07:57:57.056Z,23.56
2018-07-31T08:00:25.674Z,22.92
2018-07-31T08:02:55.045Z,23.75
2018-07-31T08:05:23.670Z,23.04
2018-07-31T08:07:52.345Z,22.74
2018-07-31T08:10:21.100Z,23.30
2018-07-31T08:12:49.845Z,23.10
2018-07-31T08:15:18.416Z,22.26
2018-07-31T08:17:47.360Z,20.67
2018-07-31T08:20:16.264Z,22.38
2018-07-31T08:22:44.904Z,20.62
2018-07-31T08:25:13.940Z,20.84
2018-07-31T08:27:42.565Z,19.67
2018-07-31T08:30:11.200Z,19.87
2018-07-31T08:32:40.167Z,19.19
2018-07-31T08:35:08.965Z,18.02
2018-07-31T08:37:37.636Z,18.57
2018-07-31T08:40:06.383Z,18.65
2018-07-31T08:42:34.999Z,19.41
2018-07-31T08:45:03.721Z,19.63
2018-07-31T08:47:32.759Z,18.81
2018-07-31T08:50:01.509Z,18.76
2018-07-31T08:52:30.200Z,16.99
2018-07-31T08:54:59.068Z,17.80
2018-07-31T08:57:28.116Z,18.31
2018-07-31T08:59:56.848Z,17.58
2018-07-31T09:02:25.636Z,17.78
2018-07-31T09:04:54.484Z,18.99
2018-07-31T09:07:23.083Z,17.11
2018-07-31T09:09:52.004Z,16.75
2018-07-31T09:12:20.744Z,17.25
2018-07-31T09:14:49.417Z,17.47
2018-07-31T09:17:18.335Z,15.25
2018-07-31T09:19:46.904Z,16.19
2018-07-31T09:22:15.554Z,14.52
2018-07-31T09:24:44.434Z,15.74
2018-07-31T09:27:13.227Z,15.36
2018-07-31T09:29:41.843Z,15.66
2018-07-31T09:32:10.588Z,14.18
2018-07-31T09:34:44.463Z,14.72
2018-07-31T09:37:13.392Z,14.77
2018-07-31T09:39:42.031Z,14.06
2018-07-31T09:42:10.939Z,12.94
2018-07-31T09:44:40.024Z,13.73
2018-07-31T09:47:08.584Z,13.93
2018-07-31T09:49:37.295Z,12.44
2018-07-31T09:52:07.548Z,13.32
2018-07-31T09:54:36.353Z,12.16
2018-07-31T09:57:05.016Z,12.47
2018-07-31T09:59:33.943Z,12.92
2018-07-31T10:02:02.480Z,11.10
2018-07-31T10:04:31.348Z,11.29
2018-07-31T10:07:00.009Z,10.29
2018-07-31T10:09:28.612Z,9.34
2018-07-31T10:11:57.327Z,9.90
2018-07-31T10:14:26.348Z,10.82
2018-07-31T10:16:55.169Z,9.70
2018-07-31T10:19:23.760Z,9.76
2018-07-31T10:21:52.547Z,10.83
2018-07-31T10:24:21.769Z,9.28
2018-07-31T10:26:50.555Z,9.22
2018-07-31T10:29:19.348Z,9.53
2018-07-31T10:31:48.314Z,8.80
2018-07-31T10:34:17.306Z,10.43
2018-07-31T10:36:46.084Z,8.47
2018-07-31T10:39:14.787Z,8.46
2018-07-31T10:41:43.532Z,7.64
2018-07-31T10:44:12.820Z,8.24
2018-07-31T10:46:41.603Z,7.50
2018-07-31T10:49:10.344Z,7.79
2018-07-31T10:51:38.953Z,7.32
2018-07-31T10:54:07.775Z,8.20
2018-07-31T10:56:36.402Z,8.31
2018-07-31T10:59:05.029Z,8.07
2018-07-31T11:01:33.671Z,8.01
2018-07-31T11:04:02.437Z,7.85
2018-07-31T11:06:31.449Z,7.99
2018-07-31T11:09:00.104Z,7.88
2018-07-31T11:11:28.716Z,8.23
2018-07-31T11:13:57.459Z,8.17
2018-07-31T11:16:26.159Z,7.82
2018-07-31T11:18:55.147Z,7.72
2018-07-31T11:21:23.812Z,7.87
2018-07-31T11:23:52.515Z,7.34
2018-07-31T11:26:21.309Z,7.48
2018-07-31T11:28:50.027Z,8.13
2018-07-31T11:31:18.625Z,7.13
2018-07-31T11:33:47.360Z,8.18
2018-07-31T11:36:16.799Z,8.37
2018-07-31T11:38:45.536Z,8.27
2018-07-31T11:41:14.341Z,8.53
2018-07-31T11:43:43.098Z,9.44
2018-07-31T11:46:11.776Z,8.34
2018-07-31T11:48:40.463Z,8.00
2018-07-31T11:51:09.588Z,8.00
2018-07-31T11:53:38.220Z,8.24
2018-07-31T11:56:06.804Z,8.46
2018-07-31T11:58:35.649Z,8.64
2018-07-31T12:01:04.624Z,7.85
2018-07-31T12:03:33.276Z,7.42
2018-07-31T12:06:02.004Z,8.16
2018-07-31T12:08:33.316Z,7.91
2018-07-31T12:11:02.127Z,8.07
2018-07-31T12:13:30.824Z,8.21
2018-07-31T12:16:00.545Z,7.61
2018-07-31T12:18:29.571Z,7.63
2018-07-31T12:20:58.513Z,7.88
2018-07-31T12:23:27.164Z,8.08
2018-07-31T12:25:55.868Z,7.94
2018-07-31T12:28:24.429Z,6.84
2018-07-31T12:30:53.082Z,8.05
2018-07-31T12:33:21.724Z,8.33
2018-07-31T12:35:50.665Z,7.22
2018-07-31T12:38:19.463Z,7.11
2018-07-31T12:40:48.531Z,7.47
2018-07-31T12:43:17.267Z,7.17
2018-07-31T12:45:45.844Z,7.62
2018-07-31T12:48:14.845Z,7.02
2018-07-31T12:50:43.524Z,7.39
2018-07-31T12:53:12.228Z,7.16
2018-07-31T12:55:41.231Z,8.13
2018-07-31T12:58:10.024Z,6.29
2018-07-31T13:00:39.049Z,7.48
2018-07-31T13:03:07.925Z,7.85
2018-07-31T13:05:36.557Z,8.19
2018-07-31T13:08:05.212Z,8.00
2018-07-31T13:10:33.960Z,7.76
2018-07-31T13:13:02.722Z,7.99
2018-07-31T13:15:31.387Z,7.59
2018-07-31T13:18:00.088Z,8.28
2018-07-31T13:20:28.788Z,8.23
2018-07-31T13:22:58.489Z,8.51
2018-07-31T13:25:27.533Z,8.49
2018-07-31T13:27:56.245Z,8.20
2018-07-31T13:30:24.790Z,8.08
2018-07-31T13:32:53.688Z,7.41
2018-07-31T13:35:22.339Z,7.65
2018-07-31T13:37:51.091Z,8.16
2018-07-31T13:40:19.873Z,7.53
2018-07-31T13:42:48.628Z,8.08
2018-07-31T13:45:17.388Z,8.66
2018-07-31T13:47:46.124Z,8.74
2018-07-31T13:50:14.855Z,7.60
2018-07-31T13:52:43.569Z,8.14
2018-07-31T13:55:13.341Z,8.31
2018-07-31T13:57:42.667Z,8.48
2018-07-31T14:00:12.082Z,8.38
2018-07-31T14:02:41.156Z,7.79
2018-07-31T14:05:10.150Z,7.78
2018-07-31T14:07:38.913Z,8.48
2018-07-31T14:10:08.052Z,8.56
2018-07-31T14:12:36.966Z,8.54
2018-07-31T14:15:05.945Z,9.18
2018-07-31T14:17:35.568Z,8.74
2018-07-31T14:20:04.616Z,9.34
2018-07-31T14:22:33.591Z,8.60
2018-07-31T14:25:03.059Z,10.04
2018-07-31T14:27:32.470Z,9.57
2018-07-31T14:30:01.857Z,9.80
2018-07-31T14:32:31.733Z,10.38
2018-07-31T14:35:01.128Z,9.31
2018-07-31T14:37:30.113Z,9.41
2018-07-31T14:39:59.231Z,9.52
2018-07-31T14:42:29.102Z,9.77
2018-07-31T14:44:57.823Z,9.37
2018-07-31T14:47:27.033Z,8.34
2018-07-31T14:49:56.829Z,9.99
2018-07-31T14:52:26.046Z,10.08
2018-07-31T14:54:56.016Z,10.35
2018-07-31T14:57:24.635Z,9.75
2018-07-31T14:59:53.273Z,9.48
2018-07-31T15:02:22.913Z,9.72
2018-07-31T15:04:52.046Z,9.70
2018-07-31T15:07:21.527Z,9.30
2018-07-31T15:09:50.911Z,9.23
2018-07-31T15:12:20.016Z,9.83
2018-07-31T15:14:49.116Z,10.46
2018-07-31T15:17:17.723Z,11.54
2018-07-31T15:19:46.552Z,10.50
2018-07-31T15:22:15.639Z,10.68
2018-07-31T15:24:45.181Z,11.04
2018-07-31T15:27:14.201Z,10.80
2018-07-31T15:29:43.325Z,11.93
2018-07-31T15:32:12.842Z,12.35
2018-07-31T15:34:42.132Z,14.15
2018-07-31T15:37:11.058Z,13.54
2018-07-31T15:39:40.261Z,14.76
2018-07-31T15:42:09.018Z,15.18
2018-07-31T15:44:38.063Z,16.11
2018-07-31T15:47:07.460Z,16.22
2018-07-31T15:49:36.839Z,16.02
2018-07-31T15:52:06.228Z,16.56
2018-07-31T15:54:35.099Z,16.85
2018-07-31T15:57:04.178Z,17.82
2018-07-31T15:59:32.922Z,16.83
2018-07-31T16:02:02.408Z,17.44
2018-07-31T16:04:31.384Z,17.81
2018-07-31T16:07:00.202Z,18.33
2018-07-31T16:09:29.048Z,18.23
2018-07-31T16:11:57.989Z,18.54
2018-07-31T16:14:26.592Z,19.17
2018-07-31T16:16:56.440Z,19.61
2018-07-31T16:19:25.099Z,19.79
2018-07-31T16:21:53.935Z,20.31
2018-07-31T16:24:22.769Z,20.36
2018-07-31T16:26:51.352Z,20.27
2018-07-31T16:29:19.944Z,20.57
2018-07-31T16:31:49.075Z,20.23
2018-07-31T16:34:17.717Z,20.22
2018-07-31T16:36:46.503Z,20.88
2018-07-31T16:39:15.855Z,21.35
2018-07-31T16:41:45.177Z,20.79
2018-07-31T16:44:14.646Z,20.92
2018-07-31T16:46:43.969Z,21.28
2018-07-31T16:49:13.367Z,21.36
2018-07-31T16:51:43.065Z,21.59
2018-07-31T16:54:11.791Z,21.55
2018-07-31T16:56:40.495Z,22.41
2018-07-31T16:59:09.329Z,22.36
2018-07-31T17:01:38.092Z,21.99
2018-07-31T17:04:07.147Z,22.53
2018-07-31T17:06:36.231Z,22.09
2018-07-31T17:09:07.501Z,22.85
2018-07-31T17:11:37.400Z,22.70
2018-07-31T17:14:06.396Z,22.97
2018-07-31T17:16:35.175Z,23.28
2018-07-31T17:19:03.941Z,23.38
2018-07-31T17:21:32.819Z,24.04
2018-07-31T17:24:01.532Z,23.79
2018-07-31T17:26:30.400Z,24.14
2018-07-31T17:28:59.793Z,24.18
2018-07-31T17:31:28.650Z,24.28
2018-07-31T17:33:57.583Z,24.11
2018-07-31T17:36:26.680Z,24.37
2018-07-31T17:38:56.124Z,24.82
2018-07-31T17:41:24.932Z,24.35
2018-07-31T17:43:53.640Z,24.76
2018-07-31T17:46:22.482Z,24.81
2018-07-31T17:48:51.460Z,24.78
2018-07-31T17:51:20.149Z,24.60
2018-07-31T17:53:49.396Z,24.77
2018-07-31T17:56:19.075Z,24.86
2018-07-31T17:58:48.469Z,24.75
2018-07-31T18:01:18.118Z,24.87
2018-07-31T18:03:47.302Z,25.11
2018-07-31T18:06:16.631Z,25.23
2018-07-31T18:08:45.836Z,24.92
2018-07-31T18:11:14.950Z,25.49
2018-07-31T18:13:43.784Z,25.03
2018-07-31T18:16:13.229Z,24.93
2018-07-31T18:18:43.978Z,25.57
2018-07-31T18:21:12.800Z,25.87
2018-07-31T18:23:42.218Z,25.61
2018-07-31T18:26:11.449Z,25.78
2018-07-31T18:28:41.301Z,26.29
2018-07-31T18:31:10.800Z,25.61
2018-07-31T18:33:40.389Z,26.48
2018-07-31T18:36:10.070Z,26.33
2018-07-31T18:38:39.283Z,26.13
2018-07-31T18:41:08.232Z,26.30
2018-07-31T18:43:36.892Z,26.17
2018-07-31T18:46:05.799Z,26.64
2018-07-31T18:48:34.629Z,26.77
2018-07-31T18:51:04.149Z,26.96
2018-07-31T18:53:33.159Z,27.12
2018-07-31T18:56:01.959Z,27.03
2018-07-31T18:58:36.385Z,27.82
2018-07-31T19:01:08.768Z,27.50
2018-07-31T19:03:38.014Z,27.34
2018-07-31T19:06:08.172Z,27.63
2018-07-31T19:08:38.200Z,27.86
2018-07-31T19:11:06.818Z,28.24
2018-07-31T19:13:35.633Z,28.50
2018-07-31T19:16:04.532Z,28.13
2018-07-31T19:18:33.243Z,28.92
2018-07-31T19:21:07.331Z,28.43
2018-07-31T19:23:35.969Z,28.25
2018-07-31T19:26:04.891Z,28.56
2018-07-31T19:28:34.030Z,29.33
2018-07-31T19:31:02.967Z,29.46
2018-07-31T19:33:32.683Z,30.33
2018-07-31T19:36:01.813Z,31.49
2018-07-31T19:38:30.543Z,33.63
2018-07-31T19:40:59.201Z,35.87
2018-07-31T19:43:28.671Z,38.22
2018-07-31T19:45:57.556Z,40.43
2018-07-31T19:48:26.224Z,41.25
2018-07-31T19:50:55.542Z,44.00
2018-07-31T19:53:24.359Z,43.69
2018-07-31T19:55:53.144Z,44.41
2018-07-31T19:58:21.981Z,47.49
2018-07-31T20:00:51.040Z,46.33
2018-07-31T20:03:19.783Z,47.15
2018-07-31T20:05:48.787Z,46.16
2018-07-31T20:08:17.824Z,45.32
2018-07-31T20:10:46.732Z,43.35
2018-07-31T20:13:15.552Z,41.62
2018-07-31T20:15:44.251Z,41.19
2018-07-31T20:18:13.216Z,40.35
2018-07-31T20:20:41.941Z,42.04
2018-07-31T20:23:10.572Z,42.74
2018-07-31T20:25:39.624Z,41.91
2018-07-31T20:28:08.346Z,42.35
2018-07-31T20:30:37.370Z,41.82
2018-07-31T20:33:06.040Z,40.94
2018-07-31T20:35:34.665Z,39.57
2018-07-31T20:38:03.423Z,38.94
2018-07-31T20:40:32.057Z,38.23
2018-07-31T20:43:00.692Z,38.92
2018-07-31T20:45:29.900Z,38.82
2018-07-31T20:47:59.330Z,38.97
2018-07-31T20:50:28.308Z,39.66
2018-07-31T20:52:57.294Z,40.82
2018-07-31T20:55:26.074Z,40.87
2018-07-31T20:57:54.798Z,40.49
2018-07-31T21:00:23.475Z,40.66
2018-07-31T21:02:52.828Z,40.43
2018-07-31T21:05:22.569Z,39.79
2018-07-31T21:07:51.441Z,39.45
2018-07-31T21:10:20.125Z,39.48
2018-07-31T21:12:48.955Z,39.78
2018-07-31T21:15:17.644Z,40.13
2018-07-31T21:17:52.654Z,40.55
2018-07-31T21:20:21.652Z,40.31
2018-07-31T21:22:50.412Z,41.96
2018-07-31T21:25:19.373Z,42.15
2018-07-31T21:27:48.357Z,41.60
2018-07-31T21:30:16.992Z,42.85
2018-07-31T21:32:46.909Z,43.10
2018-07-31T21:35:16.670Z,43.48
2018-07-31T21:37:46.110Z,43.58
2018-07-31T21:40:15.512Z,44.30
2018-07-31T21:42:44.476Z,44.18
2018-07-31T21:45:13.569Z,45.29
2018-07-31T21:47:42.209Z,45.24
2018-07-31T21:50:10.895Z,46.23
2018-07-31T21:52:39.555Z,46.53
2018-07-31T21:55:08.191Z,46.78
2018-07-31T21:57:36.825Z,46.76
2018-07-31T22:00:08.493Z,47.85
2018-07-31T22:02:37.938Z,47.46
2018-07-31T22:05:06.779Z,48.95
2018-07-31T22:07:35.803Z,49.36
2018-07-31T22:10:04.716Z,49.58
2018-07-31T22:12:33.344Z,49.05
2018-07-31T22:15:02.368Z,48.92
2018-07-31T22:17:31.016Z,48.32
2018-07-31T22:19:59.767Z,49.39
2018-07-31T22:22:28.548Z,48.68
2018-07-31T22:24:57.625Z,49.42
2018-07-31T22:27:26.184Z,48.66
2018-07-31T22:29:54.784Z,48.40
2018-07-31T22:32:23.776Z,48.78
2018-07-31T22:34:52.561Z,47.75
2018-07-31T22:37:22.155Z,47.98
2018-07-31T22:39:51.010Z,47.73
2018-07-31T22:42:20.290Z,48.08
2018-07-31T22:44:49.556Z,49.27
2018-07-31T22:47:18.532Z,49.40
2018-07-31T22:49:47.700Z,50.10
2018-07-31T22:52:16.675Z,50.91
2018-07-31T22:54:45.824Z,51.65
2018-07-31T22:57:14.890Z,51.65
2018-07-31T22:59:43.800Z,52.23
2018-07-31T23:02:12.588Z,52.65
2018-07-31T23:04:41.430Z,52.97
2018-07-31T23:07:10.144Z,51.90
2018-07-31T23:09:38.797Z,52.21
2018-07-31T23:12:08.343Z,52.20
2018-07-31T23:14:37.016Z,51.89
2018-07-31T23:17:05.887Z,52.35
2018-07-31T23:19:34.648Z,52.27
2018-07-31T23:22:03.549Z,51.33
2018-07-31T23:24:32.212Z,51.94
2018-07-31T23:27:01.194Z,52.14
2018-07-31T23:29:30.340Z,52.44
2018-07-31T23:31:59.113Z,52.61
2018-07-31T23:34:28.146Z,52.97
2018-07-31T23:36:56.755Z,52.95
2018-07-31T23:39:25.648Z,54.29
2018-07-31T23:41:54.267Z,53.63
2018-07-31T23:44:23.982Z,54.39
2018-07-31T23:46:52.740Z,54.46
2018-07-31T23:49:22.011Z,53.72
2018-07-31T23:51:50.875Z,54.51
2018-07-31T23:54:19.648Z,55.20
2018-07-31T23:56:48.618Z,54.50
2018-07-31T23:59:17.836Z,54.88
